Time;durP1;ratioP1;P1;durP2;ratioP2;P2;SDS_P1;SDS_P2;PMS_P1;PMS_P2;Temp;Humidity;BMP_temperature;BMP_pressure;BME280_temperature;BME280_humidity;BME280_pressure;Samples;Min_cycle;Max_cycle;Signal;HPM_P1;HPM_P2
2022/05/01 00:00:50;;;;;;;;;;;7.50;99.90;;;;;;5053093;28;20301;-75
2022/05/01 00:03:31;;;;;;;;;;;7.50;99.90;;;;;;5053759;28;19967;-76
2022/05/01 00:06:00;;;;;;;;;;;7.50;99.90;;;;;;5054137;28;19912;-75
2022/05/01 00:08:26;;;;;;;;;;;7.60;99.90;;;;;;5054284;28;19908;-75
2022/05/01 00:10:51;;;;;;;;;;;7.50;99.90;;;;;;5054218;28;19915;-75
2022/05/01 00:13:17;;;;;;;;;;;7.50;99.90;;;;;;5053781;28;19909;-75
2022/05/01 00:15:42;;;;;;;;;;;7.50;99.90;;;;;;5054107;28;20008;-75
2022/05/01 00:18:08;;;;;;;;;;;7.50;99.90;;;;;;5053632;28;19912;-75
2022/05/01 00:20:34;;;;;;;;;;;7.50;99.90;;;;;;5061563;28;20384;-74
2022/05/01 00:22:59;;;;;;;;;;;7.50;99.90;;;;;;5053898;28;20343;-75
2022/05/01 00:25:25;;;;;;;;;;;7.50;99.90;;;;;;5053804;28;19988;-75
2022/05/01 00:27:51;;;;;;;;;;;7.50;99.90;;;;;;5053903;28;20443;-75
2022/05/01 00:30:16;;;;;;;;;;;7.50;99.90;;;;;;5046042;28;20147;-74
2022/05/01 00:38:14;;;;;;;;;;;7.50;99.90;;;;;;5053668;28;19916;-75
2022/05/01 00:40:40;;;;;;;;;;;7.50;99.90;;;;;;5053502;28;19913;-74
2022/05/01 00:43:05;;;;;;;;;;;7.50;99.90;;;;;;5053112;28;20004;-75
2022/05/01 00:45:31;;;;;;;;;;;7.50;99.90;;;;;;5053383;28;20236;-75
2022/05/01 00:47:57;;;;;;;;;;;7.50;99.90;;;;;;5053318;28;19936;-75
2022/05/01 00:50:22;;;;;;;;;;;7.50;99.90;;;;;;5053058;28;20262;-75
2022/05/01 00:52:48;;;;;;;;;;;7.50;99.90;;;;;;5053166;28;19908;-75
2022/05/01 00:55:15;;;;;;;;;;;7.40;99.90;;;;;;5053058;28;19916;-75
2022/05/01 00:57:40;;;;;;;;;;;7.40;99.90;;;;;;5053185;28;20070;-75
2022/05/01 01:00:06;;;;;;;;;;;7.40;99.90;;;;;;5051782;28;19952;-75
2022/05/01 01:02:32;;;;;;;;;;;7.40;99.90;;;;;;5052836;28;19913;-75
2022/05/01 01:04:57;;;;;;;;;;;7.30;99.90;;;;;;5053230;28;19915;-75
2022/05/01 01:07:25;;;;;;;;;;;7.30;99.90;;;;;;5053167;28;20386;-75
2022/05/01 01:09:50;;;;;;;;;;;7.20;99.90;;;;;;5053061;28;19913;-75
2022/05/01 01:15:09;;;;;;;;;;;7.20;99.90;;;;;;5052441;28;20313;-75
2022/05/01 01:17:41;;;;;;;;;;;7.20;99.90;;;;;;5052675;28;20468;-75
2022/05/01 01:20:15;;;;;;;;;;;7.20;99.90;;;;;;5051550;28;19909;-75
2022/05/01 01:22:44;;;;;;;;;;;7.20;99.90;;;;;;5052403;28;19917;-75
2022/05/01 01:25:10;;;;;;;;;;;7.20;99.90;;;;;;5052416;28;19954;-75
2022/05/01 01:27:37;;;;;;;;;;;7.20;99.90;;;;;;5046162;28;20538;-76
2022/05/01 01:32:48;;;;;;;;;;;7.10;99.90;;;;;;5052692;28;19915;-75
2022/05/01 01:35:14;;;;;;;;;;;6.90;99.90;;;;;;5052237;28;19954;-75
2022/05/01 01:37:41;;;;;;;;;;;6.80;99.90;;;;;;5052326;28;20015;-75
2022/05/01 01:40:07;;;;;;;;;;;6.60;99.90;;;;;;5052437;28;19913;-75
2022/05/01 01:42:35;;;;;;;;;;;6.50;99.90;;;;;;5052023;28;19974;-75
2022/05/01 01:45:01;;;;;;;;;;;6.50;99.90;;;;;;5052223;28;19966;-76
2022/05/01 01:47:26;;;;;;;;;;;6.50;99.90;;;;;;5052037;28;20344;-76
2022/05/01 01:49:52;;;;;;;;;;;6.50;99.90;;;;;;5052151;28;19917;-75
2022/05/01 01:52:17;;;;;;;;;;;6.40;99.90;;;;;;5050726;28;20008;-75
2022/05/01 01:54:43;;;;;;;;;;;6.40;99.90;;;;;;5051236;28;19960;-75
2022/05/01 01:57:08;;;;;;;;;;;6.30;99.90;;;;;;5051974;28;19935;-75
2022/05/01 01:59:34;;;;;;;;;;;6.40;99.90;;;;;;5052182;28;20382;-75
2022/05/01 02:02:01;;;;;;;;;;;6.40;99.90;;;;;;5051626;28;20408;-74
2022/05/01 02:04:26;;;;;;;;;;;6.30;99.90;;;;;;5045120;28;19913;-75
2022/05/01 02:06:52;;;;;;;;;;;6.30;99.90;;;;;;5070984;28;19913;-75
2022/05/01 02:09:18;;;;;;;;;;;6.30;99.90;;;;;;5071055;28;19979;-75
2022/05/01 02:11:43;;;;;;;;;;;6.20;99.90;;;;;;5070884;28;19915;-75
2022/05/01 02:14:10;;;;;;;;;;;6.00;99.90;;;;;;5069666;28;20273;-76
2022/05/01 02:16:36;;;;;;;;;;;5.90;99.90;;;;;;5050478;28;20325;-75
2022/05/01 02:19:01;;;;;;;;;;;5.80;99.90;;;;;;5051576;28;19908;-76
2022/05/01 02:21:36;;;;;;;;;;;5.70;99.90;;;;;;5051361;28;20011;-75
2022/05/01 02:24:05;;;;;;;;;;;5.60;99.90;;;;;;5051208;28;20289;-76
2022/05/01 02:26:30;;;;;;;;;;;5.60;99.90;;;;;;5051653;28;19968;-75
2022/05/01 02:28:57;;;;;;;;;;;5.60;99.90;;;;;;5051624;28;19915;-75
2022/05/01 02:31:22;;;;;;;;;;;5.60;99.90;;;;;;5051408;28;19912;-75
2022/05/01 02:33:48;;;;;;;;;;;5.70;99.90;;;;;;5051216;28;19988;-75
2022/05/01 02:36:16;;;;;;;;;;;5.70;99.90;;;;;;5051608;28;19913;-77
2022/05/01 02:38:42;;;;;;;;;;;5.80;99.90;;;;;;5051606;28;19955;-76
2022/05/01 02:41:07;;;;;;;;;;;5.80;99.90;;;;;;5051415;28;19912;-75
2022/05/01 02:43:33;;;;;;;;;;;6.00;99.90;;;;;;5051212;28;19916;-75
2022/05/01 02:45:58;;;;;;;;;;;6.10;99.90;;;;;;5051064;28;19909;-75
2022/05/01 02:48:23;;;;;;;;;;;6.10;99.90;;;;;;5051443;28;20262;-75
2022/05/01 02:50:49;;;;;;;;;;;6.20;99.90;;;;;;5051620;28;19970;-75
2022/05/01 02:53:14;;;;;;;;;;;6.20;99.90;;;;;;5050941;28;19909;-75
2022/05/01 02:55:40;;;;;;;;;;;6.30;99.90;;;;;;5051313;28;19938;-77
2022/05/01 02:58:05;;;;;;;;;;;6.30;99.90;;;;;;5051433;28;20012;-75
2022/05/01 03:00:31;;;;;;;;;;;6.30;99.90;;;;;;5051158;28;19916;-75
2022/05/01 03:02:56;;;;;;;;;;;6.40;99.90;;;;;;5050642;28;20012;-75
2022/05/01 03:05:24;;;;;;;;;;;6.40;99.90;;;;;;5050816;28;20266;-75
2022/05/01 03:07:49;;;;;;;;;;;6.40;99.90;;;;;;5051057;28;19920;-75
2022/05/01 03:10:15;;;;;;;;;;;6.30;99.90;;;;;;5050821;28;19909;-75
2022/05/01 03:12:40;;;;;;;;;;;6.30;99.90;;;;;;5052354;28;20007;-75
2022/05/01 03:15:06;;;;;;;;;;;6.40;99.90;;;;;;5056092;28;19909;-75
2022/05/01 03:23:08;;;;;;;;;;;6.50;99.90;;;;;;5050600;28;19919;-75
2022/05/01 03:25:34;;;;;;;;;;;6.50;99.90;;;;;;5051109;28;20350;-75
2022/05/01 03:27:59;;;;;;;;;;;6.50;99.90;;;;;;5050787;28;19912;-75
2022/05/01 03:30:25;;;;;;;;;;;6.50;99.90;;;;;;5050926;28;20014;-75
2022/05/01 03:32:51;;;;;;;;;;;6.50;99.90;;;;;;5050804;28;20011;-75
2022/05/01 03:35:17;;;;;;;;;;;6.50;99.90;;;;;;5052309;28;20354;-76
2022/05/01 03:37:43;;;;;;;;;;;6.40;99.90;;;;;;5054824;28;19909;-74
2022/05/01 03:40:09;;;;;;;;;;;6.40;99.90;;;;;;5054743;28;20387;-76
2022/05/01 03:42:35;;;;;;;;;;;6.60;99.90;;;;;;5054133;28;19913;-76
2022/05/01 03:45:00;;;;;;;;;;;6.60;99.90;;;;;;5053496;28;19924;-75
2022/05/01 03:47:26;;;;;;;;;;;6.80;99.90;;;;;;5054111;28;19909;-75
2022/05/01 03:49:51;;;;;;;;;;;6.90;99.90;;;;;;5053511;28;19917;-76
2022/05/01 03:52:16;;;;;;;;;;;7.00;99.90;;;;;;5054242;28;19912;-75
2022/05/01 03:54:42;;;;;;;;;;;7.00;99.90;;;;;;5054264;28;19909;-75
2022/05/01 03:57:09;;;;;;;;;;;7.00;99.90;;;;;;5052869;28;19966;-75
2022/05/01 03:59:34;;;;;;;;;;;7.00;99.90;;;;;;5054305;28;19913;-75
2022/05/01 04:02:00;;;;;;;;;;;7.00;99.90;;;;;;5054076;28;19923;-75
2022/05/01 04:04:26;;;;;;;;;;;6.90;99.90;;;;;;5053972;28;19908;-75
2022/05/01 04:06:51;;;;;;;;;;;6.80;99.90;;;;;;5054248;28;19966;-75
2022/05/01 04:09:16;;;;;;;;;;;6.80;99.90;;;;;;5054635;28;19962;-75
2022/05/01 04:11:42;;;;;;;;;;;6.70;99.90;;;;;;5053753;28;20255;-75
2022/05/01 04:14:07;;;;;;;;;;;6.70;99.90;;;;;;5053701;28;19999;-76
2022/05/01 04:16:33;;;;;;;;;;;6.60;99.90;;;;;;5053784;28;20325;-75
2022/05/01 04:18:58;;;;;;;;;;;6.60;99.90;;;;;;5053804;28;19913;-76
2022/05/01 04:21:24;;;;;;;;;;;6.80;99.90;;;;;;5053952;28;19919;-76
2022/05/01 04:23:49;;;;;;;;;;;6.80;99.90;;;;;;5053749;28;20155;-75
2022/05/01 04:26:15;;;;;;;;;;;6.80;99.90;;;;;;5053618;28;19956;-75
2022/05/01 04:29:36;;;;;;;;;;;6.80;99.90;;;;;;5053559;28;19922;-75
2022/05/01 04:31:27;;;;;;;;;;;6.80;99.90;;;;;;5053480;28;20114;-75
2022/05/01 04:33:53;;;;;;;;;;;6.90;99.90;;;;;;5053464;28;20278;-75
2022/05/01 04:36:19;;;;;;;;;;;6.90;99.90;;;;;;5053650;28;19909;-75
2022/05/01 04:38:44;;;;;;;;;;;7.00;99.90;;;;;;5053407;28;20285;-75
2022/05/01 04:41:09;;;;;;;;;;;7.00;99.90;;;;;;5053494;28;19923;-75
2022/05/01 04:43:36;;;;;;;;;;;7.00;99.90;;;;;;5053052;28;20321;-75
2022/05/01 04:46:02;;;;;;;;;;;7.00;99.90;;;;;;5053173;28;19909;-75
2022/05/01 04:48:28;;;;;;;;;;;7.00;99.90;;;;;;5052697;28;19916;-75
2022/05/01 04:50:53;;;;;;;;;;;7.10;99.90;;;;;;5053388;28;20293;-75
2022/05/01 04:53:20;;;;;;;;;;;7.10;99.90;;;;;;5052615;28;19970;-76
2022/05/01 04:55:46;;;;;;;;;;;7.20;99.90;;;;;;5052009;28;19909;-75
2022/05/01 04:58:14;;;;;;;;;;;7.20;99.90;;;;;;5053248;28;19948;-75
2022/05/01 05:00:40;;;;;;;;;;;7.10;99.90;;;;;;5053156;28;19938;-75
2022/05/01 05:03:06;;;;;;;;;;;7.20;99.90;;;;;;5052717;28;20004;-75
2022/05/01 05:05:32;;;;;;;;;;;7.20;99.90;;;;;;5051761;28;19933;-75
2022/05/01 05:10:57;;;;;;;;;;;7.10;99.90;;;;;;5048035;28;19909;-75
2022/05/01 05:13:25;;;;;;;;;;;7.20;99.90;;;;;;5052425;28;19913;-75
2022/05/01 05:15:50;;;;;;;;;;;7.20;99.90;;;;;;5052258;28;20366;-75
2022/05/01 05:18:16;;;;;;;;;;;7.20;99.90;;;;;;5052436;28;19916;-75
2022/05/01 05:20:42;;;;;;;;;;;7.20;99.90;;;;;;5052671;28;20000;-76
2022/05/01 05:23:08;;;;;;;;;;;7.30;99.90;;;;;;5052207;28;19919;-76
2022/05/01 05:25:33;;;;;;;;;;;7.30;99.90;;;;;;5052569;28;19908;-75
2022/05/01 05:27:59;;;;;;;;;;;7.30;99.90;;;;;;5052773;28;19908;-75
2022/05/01 05:30:24;;;;;;;;;;;7.40;99.90;;;;;;5052600;28;20012;-75
2022/05/01 05:32:50;;;;;;;;;;;7.50;99.90;;;;;;5052071;28;19916;-76
2022/05/01 05:35:15;;;;;;;;;;;7.60;99.90;;;;;;5052291;28;19916;-75
2022/05/01 05:37:41;;;;;;;;;;;7.70;99.90;;;;;;5052286;28;20015;-75
2022/05/01 05:40:07;;;;;;;;;;;7.70;99.90;;;;;;5052353;28;19947;-75
2022/05/01 05:42:32;;;;;;;;;;;7.70;99.90;;;;;;5051970;28;19913;-75
2022/05/01 05:44:58;;;;;;;;;;;7.80;99.90;;;;;;5051965;28;19954;-76
2022/05/01 05:47:24;;;;;;;;;;;7.90;99.90;;;;;;5051868;28;19909;-77
2022/05/01 05:49:49;;;;;;;;;;;7.70;99.90;;;;;;5052170;28;19928;-75
2022/05/01 05:52:15;;;;;;;;;;;7.60;99.90;;;;;;5051919;28;20413;-75
2022/05/01 05:54:40;;;;;;;;;;;7.50;99.90;;;;;;5051670;28;19920;-75
2022/05/01 05:57:06;;;;;;;;;;;7.50;99.90;;;;;;5051934;28;19909;-75
2022/05/01 05:59:31;;;;;;;;;;;7.60;99.90;;;;;;5051202;28;19956;-75
2022/05/01 06:01:57;;;;;;;;;;;7.70;99.90;;;;;;5051047;28;19920;-75
2022/05/01 06:04:22;;;;;;;;;;;7.70;99.90;;;;;;5051578;28;19909;-75
2022/05/01 06:06:48;;;;;;;;;;;7.70;99.90;;;;;;5052046;28;19909;-75
2022/05/01 06:09:13;;;;;;;;;;;7.90;99.90;;;;;;5044605;28;19915;-75
2022/05/01 06:11:39;;;;;;;;;;;7.90;99.90;;;;;;5051339;28;19915;-75
2022/05/01 06:14:04;;;;;;;;;;;8.00;99.90;;;;;;5051465;28;19909;-75
2022/05/01 06:16:31;;;;;;;;;;;8.00;99.90;;;;;;5051634;28;19924;-75
2022/05/01 06:18:58;;;;;;;;;;;8.10;99.90;;;;;;5051761;28;19912;-77
2022/05/01 06:21:24;;;;;;;;;;;8.10;99.90;;;;;;5051431;28;19912;-75
2022/05/01 06:23:49;;;;;;;;;;;8.10;99.90;;;;;;5051271;28;20118;-75
2022/05/01 06:26:15;;;;;;;;;;;8.10;99.90;;;;;;5051579;28;19912;-76
2022/05/01 06:28:40;;;;;;;;;;;7.90;99.90;;;;;;5051554;28;19912;-75
2022/05/01 06:31:06;;;;;;;;;;;7.80;99.90;;;;;;5051776;28;19909;-76
2022/05/01 06:33:34;;;;;;;;;;;7.80;99.90;;;;;;5050937;28;19975;-76
2022/05/01 06:35:59;;;;;;;;;;;7.80;99.90;;;;;;5051412;28;19999;-76
2022/05/01 06:38:25;;;;;;;;;;;7.90;99.90;;;;;;5051438;28;19960;-77
2022/05/01 06:40:50;;;;;;;;;;;8.00;99.90;;;;;;5050244;28;19913;-75
2022/05/01 06:43:17;;;;;;;;;;;8.00;99.90;;;;;;5050655;28;19987;-75
2022/05/01 06:45:42;;;;;;;;;;;8.20;99.90;;;;;;5051294;28;19909;-75
2022/05/01 06:48:08;;;;;;;;;;;8.20;99.90;;;;;;5051389;28;19996;-75
2022/05/01 06:50:34;;;;;;;;;;;8.20;99.90;;;;;;5051359;28;19908;-75
2022/05/01 06:52:59;;;;;;;;;;;8.20;99.90;;;;;;5049761;28;19913;-75
2022/05/01 06:55:25;;;;;;;;;;;8.20;99.90;;;;;;5051082;28;20281;-75
2022/05/01 06:57:51;;;;;;;;;;;8.30;99.90;;;;;;5051181;28;19913;-75
2022/05/01 07:00:17;;;;;;;;;;;8.30;99.90;;;;;;5050577;28;20269;-75
2022/05/01 07:02:46;;;;;;;;;;;8.30;99.90;;;;;;5050579;28;20003;-76
2022/05/01 07:05:11;;;;;;;;;;;8.30;99.90;;;;;;5050898;28;20439;-76
2022/05/01 07:07:37;;;;;;;;;;;8.30;99.90;;;;;;5051131;28;19999;-75
2022/05/01 07:10:03;;;;;;;;;;;8.20;99.90;;;;;;5052020;28;20390;-76
2022/05/01 07:12:28;;;;;;;;;;;8.30;99.90;;;;;;5052867;28;19908;-76
2022/05/01 07:14:54;;;;;;;;;;;8.50;99.90;;;;;;5053067;28;20358;-75
2022/05/01 07:17:19;;;;;;;;;;;8.40;99.90;;;;;;5053906;28;19913;-75
2022/05/01 07:19:45;;;;;;;;;;;8.50;99.90;;;;;;5054055;28;20332;-76
2022/05/01 07:22:12;;;;;;;;;;;8.70;99.90;;;;;;5053752;28;20003;-77
2022/05/01 07:24:37;;;;;;;;;;;8.70;99.90;;;;;;5053797;28;19995;-75
2022/05/01 07:27:03;;;;;;;;;;;8.80;99.90;;;;;;5054151;28;20425;-76
2022/05/01 07:29:28;;;;;;;;;;;8.70;99.90;;;;;;5054732;28;19909;-76
2022/05/01 07:31:54;;;;;;;;;;;8.70;99.90;;;;;;5054625;28;20373;-75
2022/05/01 07:34:19;;;;;;;;;;;8.60;99.90;;;;;;5054572;28;19941;-76
2022/05/01 07:36:45;;;;;;;;;;;8.60;99.90;;;;;;5054731;28;19948;-76
2022/05/01 07:39:11;;;;;;;;;;;8.70;99.90;;;;;;5054730;28;19913;-75
2022/05/01 07:41:36;;;;;;;;;;;8.70;99.90;;;;;;5054366;28;19913;-76
2022/05/01 07:44:02;;;;;;;;;;;8.70;99.90;;;;;;5054259;28;19908;-75
2022/05/01 07:46:28;;;;;;;;;;;8.70;99.90;;;;;;5054197;28;20281;-76
2022/05/01 07:48:53;;;;;;;;;;;8.90;99.90;;;;;;5052842;28;20344;-76
2022/05/01 07:51:18;;;;;;;;;;;8.80;99.90;;;;;;5054354;28;19908;-75
2022/05/01 07:53:44;;;;;;;;;;;9.00;99.90;;;;;;5056422;28;19920;-74
2022/05/01 07:56:10;;;;;;;;;;;8.80;99.90;;;;;;5058377;28;20066;-76
2022/05/01 07:58:36;;;;;;;;;;;8.80;99.90;;;;;;5053990;28;19909;-77
2022/05/01 08:01:03;;;;;;;;;;;8.70;99.90;;;;;;5053943;28;19912;-76
2022/05/01 08:06:14;;;;;;;;;;;9.00;99.90;;;;;;5054199;28;19963;-75
2022/05/01 08:08:40;;;;;;;;;;;9.00;99.90;;;;;;5054074;28;19909;-77
2022/05/01 08:11:06;;;;;;;;;;;9.20;99.90;;;;;;5052742;28;19909;-77
2022/05/01 08:13:32;;;;;;;;;;;9.40;99.90;;;;;;5053684;28;19920;-76
2022/05/01 08:15:57;;;;;;;;;;;9.50;99.90;;;;;;5053834;28;19954;-76
2022/05/01 08:21:10;;;;;;;;;;;9.30;99.90;;;;;;5053231;28;19916;-76
2022/05/01 08:23:37;;;;;;;;;;;9.60;99.90;;;;;;5053015;28;20050;-76
2022/05/01 08:26:06;;;;;;;;;;;9.70;99.90;;;;;;5053618;28;19954;-76
2022/05/01 08:28:33;;;;;;;;;;;9.80;99.90;;;;;;5053630;28;19909;-76
2022/05/01 08:30:58;;;;;;;;;;;10.10;99.90;;;;;;5053657;28;19909;-76
2022/05/01 08:33:24;;;;;;;;;;;10.00;99.90;;;;;;5052958;28;19919;-77
2022/05/01 08:35:50;;;;;;;;;;;10.10;99.90;;;;;;5053539;28;19912;-76
2022/05/01 08:38:16;;;;;;;;;;;10.20;99.90;;;;;;5046729;28;19916;-76
2022/05/01 08:40:45;;;;;;;;;;;10.40;99.90;;;;;;5072550;28;20262;-76
2022/05/01 08:43:12;;;;;;;;;;;10.10;99.90;;;;;;5070999;28;20397;-77
2022/05/01 08:45:45;;;;;;;;;;;10.20;99.90;;;;;;5054786;28;19909;-76
2022/05/01 08:48:18;;;;;;;;;;;10.50;99.90;;;;;;5052040;28;19913;-76
2022/05/01 08:50:44;;;;;;;;;;;10.40;99.90;;;;;;5053647;28;19916;-76
2022/05/01 08:53:10;;;;;;;;;;;10.70;99.90;;;;;;5052687;28;19909;-76
2022/05/01 08:55:38;;;;;;;;;;;10.70;99.90;;;;;;5053257;28;19971;-76
2022/05/01 08:58:04;;;;;;;;;;;10.70;99.90;;;;;;5053055;28;19952;-76
2022/05/01 09:00:30;;;;;;;;;;;10.80;99.90;;;;;;5053207;28;19915;-76
2022/05/01 09:02:56;;;;;;;;;;;10.80;99.90;;;;;;5052849;28;19913;-76
2022/05/01 09:05:21;;;;;;;;;;;11.10;99.90;;;;;;5052690;28;20286;-76
2022/05/01 09:07:47;;;;;;;;;;;11.10;99.90;;;;;;5053013;28;20278;-77
2022/05/01 09:10:13;;;;;;;;;;;11.00;99.90;;;;;;5052891;28;19909;-76
2022/05/01 09:12:52;;;;;;;;;;;11.30;99.90;;;;;;5046140;28;20415;-76
2022/05/01 09:15:44;;;;;;;;;;;11.50;99.90;;;;;;5054575;28;19992;-76
2022/05/01 09:18:10;;;;;;;;;;;11.60;99.90;;;;;;5051339;28;20368;-76
2022/05/01 09:20:39;;;;;;;;;;;11.20;99.90;;;;;;5052501;28;19951;-76
2022/05/01 09:23:06;;;;;;;;;;;11.40;99.90;;;;;;5052194;28;20290;-76
2022/05/01 09:25:32;;;;;;;;;;;11.60;99.90;;;;;;5052692;28;20365;-77
2022/05/01 09:28:01;;;;;;;;;;;12.00;99.90;;;;;;5051781;28;19909;-76
2022/05/01 09:30:38;;;;;;;;;;;11.80;99.90;;;;;;5052438;28;20381;-75
2022/05/01 09:33:04;;;;;;;;;;;11.80;99.90;;;;;;5052340;28;20396;-75
2022/05/01 09:35:31;;;;;;;;;;;11.80;99.90;;;;;;5052455;28;19909;-75
2022/05/01 09:38:09;;;;;;;;;;;12.50;99.90;;;;;;5052621;28;19935;-75
2022/05/01 09:40:34;;;;;;;;;;;13.20;99.90;;;;;;5053022;28;19908;-76
2022/05/01 09:43:00;;;;;;;;;;;13.70;99.90;;;;;;5071119;28;20427;-75
2022/05/01 09:45:29;;;;;;;;;;;13.50;99.90;;;;;;5071588;28;19962;-75
2022/05/01 09:47:54;;;;;;;;;;;13.50;99.90;;;;;;5048829;28;19919;-75
2022/05/01 09:50:37;;;;;;;;;;;12.90;99.90;;;;;;5059643;28;19921;-75
2022/05/01 09:53:03;;;;;;;;;;;12.60;99.90;;;;;;5048348;28;19908;-75
2022/05/01 09:55:29;;;;;;;;;;;13.20;99.90;;;;;;5053087;28;19935;-75
2022/05/01 09:58:01;;;;;;;;;;;13.20;99.90;;;;;;5055684;28;19909;-75
2022/05/01 10:00:35;;;;;;;;;;;12.70;99.90;;;;;;5051668;28;19908;-75
2022/05/01 10:03:18;;;;;;;;;;;12.20;99.90;;;;;;5053786;28;19916;-75
2022/05/01 10:05:44;;;;;;;;;;;12.10;99.90;;;;;;5072465;28;19977;-75
2022/05/01 10:08:10;;;;;;;;;;;12.10;99.90;;;;;;5071739;28;19908;-75
2022/05/01 10:10:36;;;;;;;;;;;11.60;99.90;;;;;;5071343;28;19955;-75
2022/05/01 10:13:02;;;;;;;;;;;11.80;99.90;;;;;;5071198;28;19916;-75
2022/05/01 10:15:27;;;;;;;;;;;12.10;99.90;;;;;;5071000;28;19913;-75
2022/05/01 10:17:53;;;;;;;;;;;12.20;99.90;;;;;;5071176;28;19915;-75
2022/05/01 10:20:20;;;;;;;;;;;12.30;99.90;;;;;;5070773;28;19915;-76
2022/05/01 10:22:46;;;;;;;;;;;12.30;99.90;;;;;;5070783;28;19912;-75
2022/05/01 10:25:16;;;;;;;;;;;12.50;99.90;;;;;;5071029;28;19962;-75
2022/05/01 10:28:12;;;;;;;;;;;12.40;99.90;;;;;;5066403;28;19954;-75
2022/05/01 10:33:49;;;;;;;;;;;13.00;99.90;;;;;;5051770;28;19916;-75
2022/05/01 10:36:35;;;;;;;;;;;12.60;99.90;;;;;;5047252;28;20011;-75
2022/05/01 10:39:09;;;;;;;;;;;12.90;99.60;;;;;;5050387;28;19913;-75
2022/05/01 10:41:39;;;;;;;;;;;13.00;99.90;;;;;;5051519;28;19913;-75
2022/05/01 10:44:04;;;;;;;;;;;13.90;99.90;;;;;;5050938;28;20003;-75
2022/05/01 10:46:32;;;;;;;;;;;14.50;99.70;;;;;;5051402;28;19999;-75
2022/05/01 10:49:01;;;;;;;;;;;14.70;98.60;;;;;;5051309;28;19917;-76
2022/05/01 10:51:34;;;;;;;;;;;14.60;98.20;;;;;;5051379;28;19909;-75
2022/05/01 10:54:13;;;;;;;;;;;14.30;97.50;;;;;;5051233;28;19909;-75
2022/05/01 10:56:39;;;;;;;;;;;13.90;94.20;;;;;;5051514;28;19909;-75
2022/05/01 10:59:23;;;;;;;;;;;13.90;96.50;;;;;;5044801;28;19948;-75
2022/05/01 11:01:52;;;;;;;;;;;13.30;95.90;;;;;;5047131;28;19920;-75
2022/05/01 11:04:21;;;;;;;;;;;13.20;94.80;;;;;;5051041;28;20315;-75
2022/05/01 11:06:50;;;;;;;;;;;12.80;95.40;;;;;;5051664;28;19916;-75
2022/05/01 11:09:19;;;;;;;;;;;12.90;96.20;;;;;;5049106;28;20233;-75
2022/05/01 11:11:45;;;;;;;;;;;13.30;97.30;;;;;;5050836;28;19913;-75
2022/05/01 11:14:12;;;;;;;;;;;13.50;98.70;;;;;;5051063;28;20003;-75
2022/05/01 11:16:51;;;;;;;;;;;13.40;97.40;;;;;;5051674;28;19942;-76
2022/05/01 11:19:17;;;;;;;;;;;13.70;98.00;;;;;;5051220;28;19935;-75
2022/05/01 11:21:47;;;;;;;;;;;13.60;97.00;;;;;;5051415;28;19912;-75
2022/05/01 11:24:15;;;;;;;;;;;13.50;96.60;;;;;;5051107;28;19912;-75
2022/05/01 11:27:00;;;;;;;;;;;14.00;98.90;;;;;;5051217;28;20404;-74
2022/05/01 11:29:25;;;;;;;;;;;14.20;96.90;;;;;;5050938;28;19908;-74
2022/05/01 11:31:52;;;;;;;;;;;14.40;96.50;;;;;;5051211;28;20461;-75
2022/05/01 11:34:21;;;;;;;;;;;14.30;96.30;;;;;;5044291;28;19955;-74
2022/05/01 11:36:54;;;;;;;;;;;14.40;96.30;;;;;;5051177;28;20000;-74
2022/05/01 11:39:20;;;;;;;;;;;14.50;95.90;;;;;;5054660;28;19912;-75
2022/05/01 11:41:47;;;;;;;;;;;14.60;94.70;;;;;;5050352;28;19970;-75
2022/05/01 11:44:24;;;;;;;;;;;14.80;95.30;;;;;;5050806;28;19909;-75
2022/05/01 11:46:49;;;;;;;;;;;14.10;93.80;;;;;;5051056;28;19908;-75
2022/05/01 11:49:15;;;;;;;;;;;14.90;96.00;;;;;;5050093;28;19924;-75
2022/05/01 11:51:40;;;;;;;;;;;16.40;95.00;;;;;;5050697;28;19909;-74
2022/05/01 11:54:08;;;;;;;;;;;17.40;92.10;;;;;;5050146;28;20366;-74
2022/05/01 12:04:45;;;;;;;;;;;16.80;86.70;;;;;;5054253;28;19915;-74
2022/05/01 12:07:12;;;;;;;;;;;15.40;91.30;;;;;;5054401;28;19912;-74
2022/05/01 12:09:38;;;;;;;;;;;15.60;91.60;;;;;;5054313;28;19909;-74
2022/05/01 12:12:04;;;;;;;;;;;16.20;90.80;;;;;;5054034;28;19909;-74
2022/05/01 12:14:30;;;;;;;;;;;15.90;90.20;;;;;;5053895;28;19908;-74
2022/05/01 12:16:56;;;;;;;;;;;16.20;90.10;;;;;;5053997;28;19954;-74
2022/05/01 12:19:32;;;;;;;;;;;15.90;90.70;;;;;;5053851;28;20281;-74
2022/05/01 12:21:59;;;;;;;;;;;15.60;90.10;;;;;;5053761;28;19913;-74
2022/05/01 12:24:25;;;;;;;;;;;15.30;90.40;;;;;;5053896;28;19916;-74
2022/05/01 12:26:52;;;;;;;;;;;16.20;91.80;;;;;;5054009;28;19913;-73
2022/05/01 12:29:18;;;;;;;;;;;15.80;88.40;;;;;;5053921;28;20380;-75
2022/05/01 12:32:02;;;;;;;;;;;15.70;92.00;;;;;;5053392;28;19909;-75
2022/05/01 12:34:29;;;;;;;;;;;16.20;90.20;;;;;;5053099;28;20393;-74
2022/05/01 12:36:56;;;;;;;;;;;17.10;90.20;;;;;;5053820;28;19909;-74
2022/05/01 12:39:22;;;;;;;;;;;16.30;86.10;;;;;;5053703;28;19924;-74
2022/05/01 12:45:07;;;;;;;;;;;16.60;87.70;;;;;;5053631;28;19979;-74
2022/05/01 12:47:40;;;;;;;;;;;16.90;86.00;;;;;;5053473;28;19932;-74
2022/05/01 12:50:10;;;;;;;;;;;17.30;86.40;;;;;;5053114;28;19923;-75
2022/05/01 12:52:37;;;;;;;;;;;16.50;87.80;;;;;;5052979;28;19955;-74
2022/05/01 12:55:19;;;;;;;;;;;17.70;86.10;;;;;;5053023;28;19909;-74
2022/05/01 12:57:52;;;;;;;;;;;19.30;83.20;;;;;;5053394;28;19912;-75
2022/05/01 13:00:30;;;;;;;;;;;20.80;76.50;;;;;;5053163;28;19908;-74
2022/05/01 13:03:24;;;;;;;;;;;19.20;74.10;;;;;;5072043;28;19938;-74
2022/05/01 13:05:57;;;;;;;;;;;19.30;80.30;;;;;;5071919;28;19908;-74
2022/05/01 13:08:22;;;;;;;;;;;20.10;70.50;;;;;;5065815;28;19915;-74
2022/05/01 13:11:06;;;;;;;;;;;21.50;70.20;;;;;;5052962;28;20281;-74
2022/05/01 13:14:01;;;;;;;;;;;22.10;67.90;;;;;;5052657;28;20366;-74
2022/05/01 13:16:30;;;;;;;;;;;22.90;63.40;;;;;;5048270;28;19962;-74
2022/05/01 13:18:57;;;;;;;;;;;23.20;64.50;;;;;;5052927;28;19909;-74
2022/05/01 13:21:25;;;;;;;;;;;22.80;64.50;;;;;;5052584;28;20007;-73
2022/05/01 13:23:51;;;;;;;;;;;23.10;62.90;;;;;;5052565;28;19921;-74
2022/05/01 13:26:17;;;;;;;;;;;20.30;68.70;;;;;;5052767;28;19909;-74
2022/05/01 13:28:44;;;;;;;;;;;17.90;74.10;;;;;;5052867;28;20058;-74
2022/05/01 13:31:09;;;;;;;;;;;17.60;77.70;;;;;;5052659;28;19909;-74
2022/05/01 13:33:35;;;;;;;;;;;18.40;79.00;;;;;;5056161;28;19913;-74
2022/05/01 13:36:00;;;;;;;;;;;20.50;68.30;;;;;;5072150;28;19913;-74
2022/05/01 13:38:26;;;;;;;;;;;21.30;72.70;;;;;;5065374;28;19915;-74
2022/05/01 13:46:20;;;;;;;;;;;20.10;68.30;;;;;;5052939;28;19963;-74
2022/05/01 13:48:46;;;;;;;;;;;20.70;68.40;;;;;;5052137;28;19917;-75
2022/05/01 13:51:14;;;;;;;;;;;23.40;62.80;;;;;;5052247;28;19912;-74
2022/05/01 13:53:40;;;;;;;;;;;22.90;63.30;;;;;;5052020;28;20178;-74
2022/05/01 13:56:05;;;;;;;;;;;20.20;67.50;;;;;;5052273;28;19909;-74
2022/05/01 13:58:30;;;;;;;;;;;18.80;71.70;;;;;;5052127;28;19919;-74
2022/05/01 14:00:56;;;;;;;;;;;18.00;75.70;;;;;;5051722;28;19916;-74
2022/05/01 14:03:22;;;;;;;;;;;18.20;73.00;;;;;;5051462;28;19917;-74
2022/05/01 14:05:47;;;;;;;;;;;16.80;73.80;;;;;;5051936;28;20107;-74
2022/05/01 14:08:13;;;;;;;;;;;16.20;79.00;;;;;;5045309;28;19908;-74
2022/05/01 14:10:38;;;;;;;;;;;15.90;79.40;;;;;;5052263;28;19935;-74
2022/05/01 14:13:07;;;;;;;;;;;16.20;83.40;;;;;;5053327;28;20003;-75
2022/05/01 14:15:37;;;;;;;;;;;17.70;76.10;;;;;;5066084;28;19908;-74
2022/05/01 14:18:03;;;;;;;;;;;17.20;80.30;;;;;;5072915;28;19919;-74
2022/05/01 14:20:30;;;;;;;;;;;16.40;77.30;;;;;;5070510;28;19916;-74
2022/05/01 14:22:56;;;;;;;;;;;16.20;78.30;;;;;;5070744;28;20331;-74
2022/05/01 14:25:22;;;;;;;;;;;15.50;78.00;;;;;;5070679;28;20003;-74
2022/05/01 14:27:48;;;;;;;;;;;19.50;72.00;;;;;;5070965;28;19951;-75
2022/05/01 14:30:14;;;;;;;;;;;21.90;63.60;;;;;;5070813;28;19909;-74
2022/05/01 14:32:43;;;;;;;;;;;21.70;61.80;;;;;;5070685;28;19915;-74
2022/05/01 14:35:09;;;;;;;;;;;22.80;63.80;;;;;;5070696;28;19909;-74
2022/05/01 14:37:53;;;;;;;;;;;23.20;63.30;;;;;;5070847;28;19999;-74
2022/05/01 14:40:19;;;;;;;;;;;24.30;56.80;;;;;;5054186;28;20019;-74
2022/05/01 14:42:47;;;;;;;;;;;23.40;60.90;;;;;;5051011;28;20390;-74
2022/05/01 14:45:14;;;;;;;;;;;23.50;59.10;;;;;;5051275;28;19909;-73
2022/05/01 14:47:45;;;;;;;;;;;24.40;62.70;;;;;;5051093;28;19956;-72
2022/05/01 14:50:14;;;;;;;;;;;24.60;56.40;;;;;;5051097;28;19921;-72
2022/05/01 14:52:42;;;;;;;;;;;24.10;59.60;;;;;;5051328;28;19916;-74
2022/05/01 14:55:08;;;;;;;;;;;22.80;63.30;;;;;;5051333;28;20392;-74
2022/05/01 14:57:34;;;;;;;;;;;23.60;56.00;;;;;;5051125;28;19909;-74
2022/05/01 15:08:22;;;;;;;;;;;22.50;65.00;;;;;;5051472;28;19916;-74
2022/05/01 15:10:48;;;;;;;;;;;21.50;61.60;;;;;;5051257;28;19909;-74
2022/05/01 15:13:14;;;;;;;;;;;18.90;69.40;;;;;;5050885;28;19955;-74
2022/05/01 15:15:48;;;;;;;;;;;18.50;71.00;;;;;;5051296;28;19909;-74
2022/05/01 15:18:17;;;;;;;;;;;17.50;73.10;;;;;;5054658;28;19912;-74